sensor_id;sensor_type;location;lat;lon;timestamp;P1;durP1;ratioP1;P2;durP2;ratioP2
26612;SDS011;14248;57.652;11.908;2023-06-22T00:01:13;8.88;;;4.50;;
26612;SDS011;14248;57.652;11.908;2023-06-22T00:03:39;7.38;;;4.10;;
26612;SDS011;14248;57.652;11.908;2023-06-22T00:06:05;8.13;;;4.97;;
26612;SDS011;14248;57.652;11.908;2023-06-22T00:08:31;10.15;;;4.75;;
26612;SDS011;14248;57.652;11.908;2023-06-22T00:10:57;8.13;;;4.47;;
26612;SDS011;14248;57.652;11.908;2023-06-22T00:13:23;9.30;;;4.47;;
26612;SDS011;14248;57.652;11.908;2023-06-22T00:15:49;8.85;;;4.28;;
26612;SDS011;14248;57.652;11.908;2023-06-22T00:18:15;8.10;;;4.03;;
26612;SDS011;14248;57.652;11.908;2023-06-22T00:20:41;10.30;;;5.05;;
26612;SDS011;14248;57.652;11.908;2023-06-22T00:23:08;9.52;;;4.57;;
26612;SDS011;14248;57.652;11.908;2023-06-22T00:25:37;10.02;;;4.38;;
26612;SDS011;14248;57.652;11.908;2023-06-22T00:28:07;10.27;;;4.68;;
26612;SDS011;14248;57.652;11.908;2023-06-22T00:30:34;9.57;;;4.60;;
26612;SDS011;14248;57.652;11.908;2023-06-22T00:33:00;8.45;;;4.90;;
26612;SDS011;14248;57.652;11.908;2023-06-22T00:35:26;7.63;;;4.65;;
26612;SDS011;14248;57.652;11.908;2023-06-22T00:37:54;9.05;;;3.83;;
26612;SDS011;14248;57.652;11.908;2023-06-22T00:40:25;8.25;;;4.45;;
26612;SDS011;14248;57.652;11.908;2023-06-22T00:42:52;8.82;;;4.55;;
26612;SDS011;14248;57.652;11.908;2023-06-22T00:45:18;7.38;;;3.60;;
26612;SDS011;14248;57.652;11.908;2023-06-22T00:47:44;9.27;;;4.25;;
26612;SDS011;14248;57.652;11.908;2023-06-22T00:50:10;11.85;;;4.20;;
26612;SDS011;14248;57.652;11.908;2023-06-22T00:52:39;10.18;;;4.00;;
26612;SDS011;14248;57.652;11.908;2023-06-22T00:55:08;8.60;;;4.13;;
26612;SDS011;14248;57.652;11.908;2023-06-22T00:57:34;6.80;;;3.85;;
26612;SDS011;14248;57.652;11.908;2023-06-22T01:00:02;9.07;;;3.90;;
26612;SDS011;14248;57.652;11.908;2023-06-22T01:02:33;7.32;;;4.00;;
26612;SDS011;14248;57.652;11.908;2023-06-22T01:04:59;7.97;;;3.75;;
26612;SDS011;14248;57.652;11.908;2023-06-22T01:07:34;7.38;;;3.90;;
26612;SDS011;14248;57.652;11.908;2023-06-22T01:10:08;6.70;;;4.00;;
26612;SDS011;14248;57.652;11.908;2023-06-22T01:12:42;6.47;;;3.25;;
26612;SDS011;14248;57.652;11.908;2023-06-22T01:15:28;13.32;;;4.20;;
26612;SDS011;14248;57.652;11.908;2023-06-22T01:17:54;9.68;;;4.18;;
26612;SDS011;14248;57.652;11.908;2023-06-22T01:20:22;8.32;;;4.05;;
26612;SDS011;14248;57.652;11.908;2023-06-22T01:25:38;7.82;;;4.35;;
26612;SDS011;14248;57.652;11.908;2023-06-22T01:30:28;14.43;;;5.15;;
26612;SDS011;14248;57.652;11.908;2023-06-22T01:32:57;8.57;;;4.20;;
26612;SDS011;14248;57.652;11.908;2023-06-22T01:35:24;7.72;;;4.00;;
26612;SDS011;14248;57.652;11.908;2023-06-22T01:37:50;7.55;;;4.13;;
26612;SDS011;14248;57.652;11.908;2023-06-22T01:40:17;11.25;;;3.85;;
26612;SDS011;14248;57.652;11.908;2023-06-22T01:42:44;8.63;;;3.85;;
26612;SDS011;14248;57.652;11.908;2023-06-22T01:45:11;8.18;;;3.85;;
26612;SDS011;14248;57.652;11.908;2023-06-22T01:47:37;11.35;;;3.92;;
26612;SDS011;14248;57.652;11.908;2023-06-22T01:50:04;8.25;;;3.60;;
26612;SDS011;14248;57.652;11.908;2023-06-22T01:52:30;7.70;;;3.83;;
26612;SDS011;14248;57.652;11.908;2023-06-22T01:54:59;10.95;;;3.55;;
26612;SDS011;14248;57.652;11.908;2023-06-22T01:57:25;10.98;;;3.90;;
26612;SDS011;14248;57.652;11.908;2023-06-22T01:59:53;8.88;;;3.50;;
26612;SDS011;14248;57.652;11.908;2023-06-22T02:02:22;8.15;;;3.38;;
26612;SDS011;14248;57.652;11.908;2023-06-22T02:07:20;6.68;;;3.35;;
26612;SDS011;14248;57.652;11.908;2023-06-22T02:09:49;8.60;;;3.78;;
26612;SDS011;14248;57.652;11.908;2023-06-22T02:12:17;7.82;;;3.55;;
26612;SDS011;14248;57.652;11.908;2023-06-22T02:14:44;11.57;;;4.07;;
26612;SDS011;14248;57.652;11.908;2023-06-22T02:17:11;7.95;;;3.38;;
26612;SDS011;14248;57.652;11.908;2023-06-22T02:19:38;9.23;;;3.45;;
26612;SDS011;14248;57.652;11.908;2023-06-22T02:22:04;9.70;;;3.80;;
26612;SDS011;14248;57.652;11.908;2023-06-22T02:24:30;9.43;;;3.72;;
26612;SDS011;14248;57.652;11.908;2023-06-22T02:27:00;9.98;;;3.60;;
26612;SDS011;14248;57.652;11.908;2023-06-22T02:29:26;10.00;;;3.85;;
26612;SDS011;14248;57.652;11.908;2023-06-22T02:31:53;6.53;;;3.58;;
26612;SDS011;14248;57.652;11.908;2023-06-22T02:34:19;7.18;;;3.42;;
26612;SDS011;14248;57.652;11.908;2023-06-22T02:36:46;11.95;;;3.97;;
26612;SDS011;14248;57.652;11.908;2023-06-22T02:39:22;9.13;;;3.63;;
26612;SDS011;14248;57.652;11.908;2023-06-22T02:41:53;7.47;;;3.83;;
26612;SDS011;14248;57.652;11.908;2023-06-22T02:44:19;9.80;;;3.65;;
26612;SDS011;14248;57.652;11.908;2023-06-22T02:46:46;5.57;;;3.45;;
26612;SDS011;14248;57.652;11.908;2023-06-22T02:49:12;7.28;;;3.47;;
26612;SDS011;14248;57.652;11.908;2023-06-22T02:51:39;10.35;;;3.78;;
26612;SDS011;14248;57.652;11.908;2023-06-22T02:54:05;10.27;;;4.03;;
26612;SDS011;14248;57.652;11.908;2023-06-22T02:56:32;7.55;;;3.65;;
26612;SDS011;14248;57.652;11.908;2023-06-22T02:58:58;8.05;;;3.90;;
26612;SDS011;14248;57.652;11.908;2023-06-22T03:01:27;6.72;;;3.38;;
26612;SDS011;14248;57.652;11.908;2023-06-22T03:03:55;7.22;;;3.40;;
26612;SDS011;14248;57.652;11.908;2023-06-22T03:06:21;10.25;;;3.58;;
26612;SDS011;14248;57.652;11.908;2023-06-22T03:08:51;9.15;;;3.83;;
26612;SDS011;14248;57.652;11.908;2023-06-22T03:11:17;8.50;;;4.18;;
26612;SDS011;14248;57.652;11.908;2023-06-22T03:13:43;9.23;;;3.72;;
26612;SDS011;14248;57.652;11.908;2023-06-22T03:16:11;8.68;;;3.78;;
26612;SDS011;14248;57.652;11.908;2023-06-22T03:18:37;8.90;;;3.60;;
26612;SDS011;14248;57.652;11.908;2023-06-22T03:21:03;9.10;;;3.88;;
26612;SDS011;14248;57.652;11.908;2023-06-22T03:23:30;8.07;;;3.95;;
26612;SDS011;14248;57.652;11.908;2023-06-22T03:25:56;6.93;;;3.60;;
26612;SDS011;14248;57.652;11.908;2023-06-22T03:28:22;9.48;;;4.03;;
26612;SDS011;14248;57.652;11.908;2023-06-22T03:30:48;9.40;;;3.95;;
26612;SDS011;14248;57.652;11.908;2023-06-22T03:33:14;11.77;;;4.15;;
26612;SDS011;14248;57.652;11.908;2023-06-22T03:35:40;8.38;;;3.90;;
26612;SDS011;14248;57.652;11.908;2023-06-22T03:38:07;8.73;;;4.18;;
26612;SDS011;14248;57.652;11.908;2023-06-22T03:40:33;10.07;;;4.18;;
26612;SDS011;14248;57.652;11.908;2023-06-22T03:42:59;10.10;;;3.90;;
26612;SDS011;14248;57.652;11.908;2023-06-22T03:45:25;11.70;;;4.50;;
26612;SDS011;14248;57.652;11.908;2023-06-22T03:47:51;9.77;;;4.10;;
26612;SDS011;14248;57.652;11.908;2023-06-22T03:50:18;9.98;;;3.72;;
26612;SDS011;14248;57.652;11.908;2023-06-22T03:52:45;10.15;;;4.28;;
26612;SDS011;14248;57.652;11.908;2023-06-22T03:55:11;9.40;;;3.92;;
26612;SDS011;14248;57.652;11.908;2023-06-22T03:57:37;7.55;;;3.88;;
26612;SDS011;14248;57.652;11.908;2023-06-22T04:00:04;8.75;;;3.97;;
26612;SDS011;14248;57.652;11.908;2023-06-22T04:02:34;7.00;;;3.80;;
26612;SDS011;14248;57.652;11.908;2023-06-22T04:05:00;9.32;;;3.85;;
26612;SDS011;14248;57.652;11.908;2023-06-22T04:07:26;10.65;;;3.85;;
26612;SDS011;14248;57.652;11.908;2023-06-22T04:09:53;7.97;;;3.63;;
26612;SDS011;14248;57.652;11.908;2023-06-22T04:12:19;9.23;;;4.40;;
26612;SDS011;14248;57.652;11.908;2023-06-22T04:14:45;10.57;;;3.95;;
26612;SDS011;14248;57.652;11.908;2023-06-22T04:17:11;11.05;;;3.95;;
26612;SDS011;14248;57.652;11.908;2023-06-22T04:19:39;7.72;;;3.80;;
26612;SDS011;14248;57.652;11.908;2023-06-22T04:22:05;6.30;;;3.70;;
26612;SDS011;14248;57.652;11.908;2023-06-22T04:24:35;9.52;;;3.88;;
26612;SDS011;14248;57.652;11.908;2023-06-22T04:27:01;12.98;;;4.63;;
26612;SDS011;14248;57.652;11.908;2023-06-22T04:29:28;12.77;;;3.80;;
26612;SDS011;14248;57.652;11.908;2023-06-22T04:31:55;14.35;;;4.00;;
26612;SDS011;14248;57.652;11.908;2023-06-22T04:34:23;9.02;;;4.35;;
26612;SDS011;14248;57.652;11.908;2023-06-22T04:36:51;7.03;;;3.67;;
26612;SDS011;14248;57.652;11.908;2023-06-22T04:39:17;10.60;;;4.35;;
26612;SDS011;14248;57.652;11.908;2023-06-22T04:41:44;12.45;;;4.45;;
26612;SDS011;14248;57.652;11.908;2023-06-22T04:46:37;9.93;;;3.95;;
26612;SDS011;14248;57.652;11.908;2023-06-22T04:49:07;6.68;;;4.05;;
26612;SDS011;14248;57.652;11.908;2023-06-22T04:51:39;7.55;;;3.70;;
26612;SDS011;14248;57.652;11.908;2023-06-22T04:54:05;8.07;;;4.22;;
26612;SDS011;14248;57.652;11.908;2023-06-22T04:56:32;8.52;;;4.10;;
26612;SDS011;14248;57.652;11.908;2023-06-22T04:58:58;7.00;;;3.92;;
26612;SDS011;14248;57.652;11.908;2023-06-22T05:01:24;12.48;;;4.85;;
26612;SDS011;14248;57.652;11.908;2023-06-22T05:03:51;12.80;;;4.75;;
26612;SDS011;14248;57.652;11.908;2023-06-22T05:06:25;5.10;;;4.20;;
26612;SDS011;14248;57.652;11.908;2023-06-22T05:08:55;7.45;;;3.78;;
26612;SDS011;14248;57.652;11.908;2023-06-22T05:11:25;9.95;;;3.95;;
26612;SDS011;14248;57.652;11.908;2023-06-22T05:13:51;6.68;;;4.20;;
26612;SDS011;14248;57.652;11.908;2023-06-22T05:16:17;9.70;;;4.28;;
26612;SDS011;14248;57.652;11.908;2023-06-22T05:18:49;10.15;;;4.30;;
26612;SDS011;14248;57.652;11.908;2023-06-22T05:21:16;12.40;;;4.60;;
26612;SDS011;14248;57.652;11.908;2023-06-22T05:23:42;10.45;;;4.55;;
26612;SDS011;14248;57.652;11.908;2023-06-22T05:26:08;13.15;;;4.68;;
26612;SDS011;14248;57.652;11.908;2023-06-22T05:28:35;13.90;;;4.43;;
26612;SDS011;14248;57.652;11.908;2023-06-22T05:31:01;9.32;;;4.22;;
26612;SDS011;14248;57.652;11.908;2023-06-22T05:33:27;8.65;;;4.63;;
26612;SDS011;14248;57.652;11.908;2023-06-22T05:35:53;7.90;;;4.68;;
26612;SDS011;14248;57.652;11.908;2023-06-22T05:38:19;7.70;;;4.15;;
26612;SDS011;14248;57.652;11.908;2023-06-22T05:40:45;9.85;;;5.07;;
26612;SDS011;14248;57.652;11.908;2023-06-22T05:43:11;7.50;;;3.92;;
26612;SDS011;14248;57.652;11.908;2023-06-22T05:45:37;11.02;;;4.30;;
26612;SDS011;14248;57.652;11.908;2023-06-22T05:48:03;8.65;;;4.07;;
26612;SDS011;14248;57.652;11.908;2023-06-22T05:50:30;9.38;;;4.72;;
26612;SDS011;14248;57.652;11.908;2023-06-22T05:52:56;9.27;;;4.43;;
26612;SDS011;14248;57.652;11.908;2023-06-22T05:55:22;8.25;;;4.68;;
26612;SDS011;14248;57.652;11.908;2023-06-22T05:57:48;8.70;;;4.55;;
26612;SDS011;14248;57.652;11.908;2023-06-22T06:00:14;10.98;;;4.88;;
26612;SDS011;14248;57.652;11.908;2023-06-22T06:02:40;7.05;;;4.53;;
26612;SDS011;14248;57.652;11.908;2023-06-22T06:05:12;5.90;;;3.85;;
26612;SDS011;14248;57.652;11.908;2023-06-22T06:07:39;6.30;;;3.55;;
26612;SDS011;14248;57.652;11.908;2023-06-22T06:10:05;7.43;;;4.15;;
26612;SDS011;14248;57.652;11.908;2023-06-22T06:12:32;13.60;;;4.22;;
26612;SDS011;14248;57.652;11.908;2023-06-22T06:14:58;7.50;;;4.28;;
26612;SDS011;14248;57.652;11.908;2023-06-22T06:17:24;10.13;;;4.40;;
26612;SDS011;14248;57.652;11.908;2023-06-22T06:19:50;5.60;;;3.55;;
26612;SDS011;14248;57.652;11.908;2023-06-22T06:22:16;7.97;;;4.25;;
26612;SDS011;14248;57.652;11.908;2023-06-22T06:24:43;11.07;;;4.53;;
26612;SDS011;14248;57.652;11.908;2023-06-22T06:27:09;9.00;;;4.50;;
26612;SDS011;14248;57.652;11.908;2023-06-22T06:29:35;8.82;;;3.85;;
26612;SDS011;14248;57.652;11.908;2023-06-22T06:32:01;10.05;;;4.03;;
26612;SDS011;14248;57.652;11.908;2023-06-22T06:34:28;8.48;;;3.65;;
26612;SDS011;14248;57.652;11.908;2023-06-22T06:36:54;9.05;;;4.20;;
26612;SDS011;14248;57.652;11.908;2023-06-22T06:39:20;7.88;;;4.15;;
26612;SDS011;14248;57.652;11.908;2023-06-22T06:41:46;9.02;;;3.92;;
26612;SDS011;14248;57.652;11.908;2023-06-22T06:44:12;10.10;;;4.10;;
26612;SDS011;14248;57.652;11.908;2023-06-22T06:46:38;10.13;;;4.38;;
26612;SDS011;14248;57.652;11.908;2023-06-22T06:49:04;10.38;;;4.10;;
26612;SDS011;14248;57.652;11.908;2023-06-22T06:51:30;11.50;;;4.15;;
26612;SDS011;14248;57.652;11.908;2023-06-22T06:53:57;6.72;;;3.60;;
26612;SDS011;14248;57.652;11.908;2023-06-22T06:56:23;6.38;;;3.60;;
26612;SDS011;14248;57.652;11.908;2023-06-22T06:58:49;10.15;;;4.28;;
26612;SDS011;14248;57.652;11.908;2023-06-22T07:01:15;9.40;;;3.92;;
26612;SDS011;14248;57.652;11.908;2023-06-22T07:03:41;9.30;;;4.00;;
26612;SDS011;14248;57.652;11.908;2023-06-22T07:06:08;11.80;;;4.40;;
26612;SDS011;14248;57.652;11.908;2023-06-22T07:08:34;7.05;;;3.70;;
26612;SDS011;14248;57.652;11.908;2023-06-22T07:11:04;9.18;;;3.55;;
26612;SDS011;14248;57.652;11.908;2023-06-22T07:13:30;12.13;;;4.53;;
26612;SDS011;14248;57.652;11.908;2023-06-22T07:15:56;6.85;;;3.70;;
26612;SDS011;14248;57.652;11.908;2023-06-22T07:18:23;9.20;;;3.80;;
26612;SDS011;14248;57.652;11.908;2023-06-22T07:20:49;8.93;;;3.88;;
26612;SDS011;14248;57.652;11.908;2023-06-22T07:23:16;6.85;;;3.45;;
26612;SDS011;14248;57.652;11.908;2023-06-22T07:25:42;8.43;;;4.10;;
26612;SDS011;14248;57.652;11.908;2023-06-22T07:28:08;7.22;;;3.67;;
26612;SDS011;14248;57.652;11.908;2023-06-22T07:30:35;10.77;;;3.72;;
26612;SDS011;14248;57.652;11.908;2023-06-22T07:33:01;7.75;;;4.07;;
26612;SDS011;14248;57.652;11.908;2023-06-22T07:35:28;9.13;;;3.70;;
26612;SDS011;14248;57.652;11.908;2023-06-22T07:37:54;7.78;;;3.50;;
26612;SDS011;14248;57.652;11.908;2023-06-22T07:40:20;6.47;;;3.63;;
26612;SDS011;14248;57.652;11.908;2023-06-22T07:42:46;7.45;;;3.70;;
26612;SDS011;14248;57.652;11.908;2023-06-22T07:45:17;8.25;;;3.92;;
26612;SDS011;14248;57.652;11.908;2023-06-22T07:47:43;8.32;;;3.85;;
26612;SDS011;14248;57.652;11.908;2023-06-22T07:50:09;8.18;;;3.85;;
26612;SDS011;14248;57.652;11.908;2023-06-22T07:52:35;6.63;;;3.70;;
26612;SDS011;14248;57.652;11.908;2023-06-22T07:55:02;6.93;;;3.55;;
26612;SDS011;14248;57.652;11.908;2023-06-22T07:57:28;10.32;;;3.60;;
26612;SDS011;14248;57.652;11.908;2023-06-22T08:00:02;8.18;;;3.55;;
26612;SDS011;14248;57.652;11.908;2023-06-22T08:02:38;6.53;;;3.65;;
26612;SDS011;14248;57.652;11.908;2023-06-22T08:05:05;7.63;;;3.50;;
26612;SDS011;14248;57.652;11.908;2023-06-22T08:07:33;7.78;;;3.95;;
26612;SDS011;14248;57.652;11.908;2023-06-22T08:10:00;6.80;;;3.70;;
26612;SDS011;14248;57.652;11.908;2023-06-22T08:12:27;8.13;;;3.67;;
26612;SDS011;14248;57.652;11.908;2023-06-22T08:14:53;7.25;;;3.70;;
26612;SDS011;14248;57.652;11.908;2023-06-22T08:17:19;6.22;;;3.40;;
26612;SDS011;14248;57.652;11.908;2023-06-22T08:19:45;6.03;;;3.45;;
26612;SDS011;14248;57.652;11.908;2023-06-22T08:22:11;5.72;;;3.17;;
26612;SDS011;14248;57.652;11.908;2023-06-22T08:24:37;9.75;;;3.90;;
26612;SDS011;14248;57.652;11.908;2023-06-22T08:27:03;5.88;;;3.33;;
26612;SDS011;14248;57.652;11.908;2023-06-22T08:29:34;5.25;;;3.00;;
26612;SDS011;14248;57.652;11.908;2023-06-22T08:32:00;3.85;;;2.83;;
26612;SDS011;14248;57.652;11.908;2023-06-22T08:34:26;6.47;;;3.40;;
26612;SDS011;14248;57.652;11.908;2023-06-22T08:36:53;7.78;;;3.45;;
26612;SDS011;14248;57.652;11.908;2023-06-22T08:39:19;6.47;;;3.40;;
26612;SDS011;14248;57.652;11.908;2023-06-22T08:41:46;7.50;;;3.00;;
26612;SDS011;14248;57.652;11.908;2023-06-22T08:44:12;4.70;;;2.97;;
26612;SDS011;14248;57.652;11.908;2023-06-22T08:46:38;6.38;;;3.63;;
26612;SDS011;14248;57.652;11.908;2023-06-22T08:49:06;7.93;;;3.88;;
26612;SDS011;14248;57.652;11.908;2023-06-22T08:51:32;6.75;;;3.60;;
26612;SDS011;14248;57.652;11.908;2023-06-22T08:53:58;6.82;;;3.05;;
26612;SDS011;14248;57.652;11.908;2023-06-22T08:56:24;6.35;;;3.42;;
26612;SDS011;14248;57.652;11.908;2023-06-22T08:58:50;7.40;;;3.60;;
26612;SDS011;14248;57.652;11.908;2023-06-22T09:01:16;5.88;;;3.38;;
26612;SDS011;14248;57.652;11.908;2023-06-22T09:03:42;4.75;;;3.00;;
26612;SDS011;14248;57.652;11.908;2023-06-22T09:06:08;6.10;;;2.92;;
26612;SDS011;14248;57.652;11.908;2023-06-22T09:08:35;8.80;;;3.90;;
26612;SDS011;14248;57.652;11.908;2023-06-22T09:11:01;7.72;;;3.53;;
26612;SDS011;14248;57.652;11.908;2023-06-22T09:13:29;5.28;;;2.80;;
26612;SDS011;14248;57.652;11.908;2023-06-22T09:15:56;6.32;;;3.40;;
26612;SDS011;14248;57.652;11.908;2023-06-22T09:18:22;6.00;;;3.28;;
26612;SDS011;14248;57.652;11.908;2023-06-22T09:20:48;4.80;;;2.97;;
26612;SDS011;14248;57.652;11.908;2023-06-22T09:23:14;6.72;;;3.88;;
26612;SDS011;14248;57.652;11.908;2023-06-22T09:25:40;6.45;;;3.65;;
26612;SDS011;14248;57.652;11.908;2023-06-22T09:28:06;8.25;;;3.92;;
26612;SDS011;14248;57.652;11.908;2023-06-22T09:30:32;8.07;;;3.55;;
26612;SDS011;14248;57.652;11.908;2023-06-22T09:32:58;7.55;;;3.75;;
26612;SDS011;14248;57.652;11.908;2023-06-22T09:35:26;6.32;;;3.88;;
26612;SDS011;14248;57.652;11.908;2023-06-22T09:37:52;5.15;;;3.40;;
26612;SDS011;14248;57.652;11.908;2023-06-22T09:40:18;7.38;;;3.47;;
26612;SDS011;14248;57.652;11.908;2023-06-22T09:42:45;8.27;;;3.90;;
26612;SDS011;14248;57.652;11.908;2023-06-22T09:45:11;5.10;;;3.50;;
26612;SDS011;14248;57.652;11.908;2023-06-22T09:47:37;8.07;;;4.32;;
26612;SDS011;14248;57.652;11.908;2023-06-22T09:50:03;8.82;;;3.70;;
26612;SDS011;14248;57.652;11.908;2023-06-22T09:52:29;6.30;;;3.88;;
26612;SDS011;14248;57.652;11.908;2023-06-22T09:54:55;8.05;;;4.07;;
26612;SDS011;14248;57.652;11.908;2023-06-22T09:57:21;6.97;;;3.58;;
26612;SDS011;14248;57.652;11.908;2023-06-22T09:59:47;11.48;;;4.63;;
26612;SDS011;14248;57.652;11.908;2023-06-22T10:02:13;5.90;;;3.70;;
26612;SDS011;14248;57.652;11.908;2023-06-22T10:04:40;7.35;;;3.65;;
26612;SDS011;14248;57.652;11.908;2023-06-22T10:07:06;7.13;;;3.42;;
26612;SDS011;14248;57.652;11.908;2023-06-22T10:09:32;6.35;;;3.33;;
26612;SDS011;14248;57.652;11.908;2023-06-22T10:11:58;7.07;;;3.40;;
26612;SDS011;14248;57.652;11.908;2023-06-22T10:14:24;6.85;;;3.92;;
26612;SDS011;14248;57.652;11.908;2023-06-22T10:16:51;7.25;;;3.50;;
26612;SDS011;14248;57.652;11.908;2023-06-22T10:19:18;4.18;;;3.25;;
26612;SDS011;14248;57.652;11.908;2023-06-22T10:21:44;4.03;;;3.05;;
26612;SDS011;14248;57.652;11.908;2023-06-22T10:24:10;5.00;;;3.20;;
26612;SDS011;14248;57.652;11.908;2023-06-22T10:26:36;9.15;;;3.97;;
26612;SDS011;14248;57.652;11.908;2023-06-22T10:29:02;5.45;;;3.60;;
26612;SDS011;14248;57.652;11.908;2023-06-22T10:31:28;8.75;;;4.03;;
26612;SDS011;14248;57.652;11.908;2023-06-22T10:33:55;9.15;;;4.13;;
26612;SDS011;14248;57.652;11.908;2023-06-22T10:36:21;8.15;;;4.05;;
26612;SDS011;14248;57.652;11.908;2023-06-22T10:38:47;9.10;;;4.53;;
26612;SDS011;14248;57.652;11.908;2023-06-22T10:41:14;7.70;;;3.95;;
26612;SDS011;14248;57.652;11.908;2023-06-22T10:43:41;5.95;;;4.82;;
26612;SDS011;14248;57.652;11.908;2023-06-22T10:46:07;5.43;;;3.78;;
26612;SDS011;14248;57.652;11.908;2023-06-22T10:48:33;9.15;;;4.78;;
26612;SDS011;14248;57.652;11.908;2023-06-22T10:50:59;6.93;;;4.70;;
26612;SDS011;14248;57.652;11.908;2023-06-22T10:53:25;7.22;;;4.30;;
26612;SDS011;14248;57.652;11.908;2023-06-22T10:55:51;7.00;;;3.92;;
26612;SDS011;14248;57.652;11.908;2023-06-22T10:58:18;9.43;;;4.22;;
26612;SDS011;14248;57.652;11.908;2023-06-22T11:00:45;7.32;;;4.05;;
26612;SDS011;14248;57.652;11.908;2023-06-22T11:03:11;7.00;;;4.20;;
26612;SDS011;14248;57.652;11.908;2023-06-22T11:05:39;9.70;;;4.10;;
26612;SDS011;14248;57.652;11.908;2023-06-22T11:08:05;8.77;;;4.43;;
26612;SDS011;14248;57.652;11.908;2023-06-22T11:10:31;5.88;;;4.57;;
26612;SDS011;14248;57.652;11.908;2023-06-22T11:12:57;8.23;;;4.93;;
26612;SDS011;14248;57.652;11.908;2023-06-22T11:15:23;6.45;;;4.60;;
26612;SDS011;14248;57.652;11.908;2023-06-22T11:17:49;6.32;;;4.70;;
26612;SDS011;14248;57.652;11.908;2023-06-22T11:20:15;7.88;;;4.25;;
26612;SDS011;14248;57.652;11.908;2023-06-22T11:22:42;5.15;;;3.80;;
26612;SDS011;14248;57.652;11.908;2023-06-22T11:25:08;5.80;;;3.90;;
26612;SDS011;14248;57.652;11.908;2023-06-22T11:27:36;8.68;;;4.93;;
26612;SDS011;14248;57.652;11.908;2023-06-22T11:30:02;6.90;;;4.20;;
26612;SDS011;14248;57.652;11.908;2023-06-22T11:32:28;6.35;;;4.10;;
26612;SDS011;14248;57.652;11.908;2023-06-22T11:34:55;6.57;;;4.13;;
26612;SDS011;14248;57.652;11.908;2023-06-22T11:37:21;6.75;;;4.10;;
26612;SDS011;14248;57.652;11.908;2023-06-22T11:39:47;7.00;;;5.32;;
26612;SDS011;14248;57.652;11.908;2023-06-22T11:42:13;6.43;;;4.40;;
26612;SDS011;14248;57.652;11.908;2023-06-22T11:44:39;6.85;;;4.30;;
26612;SDS011;14248;57.652;11.908;2023-06-22T11:47:05;7.25;;;4.22;;
26612;SDS011;14248;57.652;11.908;2023-06-22T11:49:31;7.07;;;4.20;;
26612;SDS011;14248;57.652;11.908;2023-06-22T11:51:57;5.43;;;4.18;;
26612;SDS011;14248;57.652;11.908;2023-06-22T11:54:23;5.68;;;4.68;;
26612;SDS011;14248;57.652;11.908;2023-06-22T11:56:49;6.00;;;3.80;;
26612;SDS011;14248;57.652;11.908;2023-06-22T11:59:16;6.32;;;4.10;;
26612;SDS011;14248;57.652;11.908;2023-06-22T12:01:43;6.20;;;4.00;;
26612;SDS011;14248;57.652;11.908;2023-06-22T12:04:09;5.15;;;3.92;;
26612;SDS011;14248;57.652;11.908;2023-06-22T12:06:37;8.05;;;4.40;;
26612;SDS011;14248;57.652;11.908;2023-06-22T12:09:06;6.13;;;3.55;;
26612;SDS011;14248;57.652;11.908;2023-06-22T12:11:34;7.32;;;4.60;;
26612;SDS011;14248;57.652;11.908;2023-06-22T12:14:00;6.68;;;3.95;;
26612;SDS011;14248;57.652;11.908;2023-06-22T12:16:30;4.70;;;4.18;;
26612;SDS011;14248;57.652;11.908;2023-06-22T12:18:56;9.48;;;4.28;;
26612;SDS011;14248;57.652;11.908;2023-06-22T12:21:22;5.68;;;4.00;;
26612;SDS011;14248;57.652;11.908;2023-06-22T12:23:48;6.78;;;4.55;;
26612;SDS011;14248;57.652;11.908;2023-06-22T12:26:14;8.20;;;4.45;;
26612;SDS011;14248;57.652;11.908;2023-06-22T12:28:40;4.90;;;3.78;;
26612;SDS011;14248;57.652;11.908;2023-06-22T12:31:06;7.22;;;4.47;;
26612;SDS011;14248;57.652;11.908;2023-06-22T12:33:32;5.18;;;3.85;;
26612;SDS011;14248;57.652;11.908;2023-06-22T12:35:59;8.98;;;4.43;;
26612;SDS011;14248;57.652;11.908;2023-06-22T12:38:25;5.43;;;3.92;;
26612;SDS011;14248;57.652;11.908;2023-06-22T12:40:51;7.85;;;3.95;;
26612;SDS011;14248;57.652;11.908;2023-06-22T12:43:17;9.18;;;4.78;;
26612;SDS011;14248;57.652;11.908;2023-06-22T12:45:43;7.95;;;4.22;;
26612;SDS011;14248;57.652;11.908;2023-06-22T12:48:09;5.38;;;4.60;;
26612;SDS011;14248;57.652;11.908;2023-06-22T12:50:35;5.32;;;4.00;;
26612;SDS011;14248;57.652;11.908;2023-06-22T12:53:01;6.88;;;4.53;;
26612;SDS011;14248;57.652;11.908;2023-06-22T12:55:29;5.13;;;4.32;;
26612;SDS011;14248;57.652;11.908;2023-06-22T12:57:55;5.28;;;3.53;;
26612;SDS011;14248;57.652;11.908;2023-06-22T13:00:21;6.30;;;4.13;;
26612;SDS011;14248;57.652;11.908;2023-06-22T13:02:47;6.35;;;3.75;;
26612;SDS011;14248;57.652;11.908;2023-06-22T13:05:13;8.20;;;4.65;;
26612;SDS011;14248;57.652;11.908;2023-06-22T13:07:39;4.18;;;3.20;;
26612;SDS011;14248;57.652;11.908;2023-06-22T13:10:07;4.55;;;3.55;;
26612;SDS011;14248;57.652;11.908;2023-06-22T13:12:33;5.85;;;3.60;;
26612;SDS011;14248;57.652;11.908;2023-06-22T13:14:59;5.63;;;3.60;;
26612;SDS011;14248;57.652;11.908;2023-06-22T13:17:27;5.05;;;3.83;;
26612;SDS011;14248;57.652;11.908;2023-06-22T13:19:53;4.60;;;3.60;;
26612;SDS011;14248;57.652;11.908;2023-06-22T13:22:29;6.55;;;3.08;;
26612;SDS011;14248;57.652;11.908;2023-06-22T13:24:56;3.78;;;3.33;;
26612;SDS011;14248;57.652;11.908;2023-06-22T13:27:22;6.47;;;3.63;;
26612;SDS011;14248;57.652;11.908;2023-06-22T13:29:48;9.02;;;3.78;;
26612;SDS011;14248;57.652;11.908;2023-06-22T13:32:14;5.93;;;3.05;;
26612;SDS011;14248;57.652;11.908;2023-06-22T13:34:41;4.88;;;3.63;;
26612;SDS011;14248;57.652;11.908;2023-06-22T13:37:07;5.22;;;2.78;;
26612;SDS011;14248;57.652;11.908;2023-06-22T13:39:33;8.13;;;3.38;;
26612;SDS011;14248;57.652;11.908;2023-06-22T13:41:59;4.18;;;3.03;;
26612;SDS011;14248;57.652;11.908;2023-06-22T13:44:24;6.82;;;3.10;;
26612;SDS011;14248;57.652;11.908;2023-06-22T13:46:54;4.28;;;2.80;;
26612;SDS011;14248;57.652;11.908;2023-06-22T13:49:19;3.42;;;2.92;;
26612;SDS011;14248;57.652;11.908;2023-06-22T13:51:46;5.20;;;2.67;;
26612;SDS011;14248;57.652;11.908;2023-06-22T13:54:13;3.15;;;2.60;;
26612;SDS011;14248;57.652;11.908;2023-06-22T13:56:39;3.92;;;2.83;;
26612;SDS011;14248;57.652;11.908;2023-06-22T13:59:04;4.78;;;3.08;;
26612;SDS011;14248;57.652;11.908;2023-06-22T14:01:31;3.05;;;2.63;;
26612;SDS011;14248;57.652;11.908;2023-06-22T14:03:57;5.95;;;2.60;;
26612;SDS011;14248;57.652;11.908;2023-06-22T14:06:23;4.78;;;2.78;;
26612;SDS011;14248;57.652;11.908;2023-06-22T14:08:48;2.72;;;2.20;;
26612;SDS011;14248;57.652;11.908;2023-06-22T14:11:16;4.18;;;2.42;;
26612;SDS011;14248;57.652;11.908;2023-06-22T14:13:41;4.22;;;2.40;;
26612;SDS011;14248;57.652;11.908;2023-06-22T14:16:08;3.88;;;2.53;;
26612;SDS011;14248;57.652;11.908;2023-06-22T14:18:33;5.68;;;2.78;;
26612;SDS011;14248;57.652;11.908;2023-06-22T14:20:59;3.47;;;2.45;;
26612;SDS011;14248;57.652;11.908;2023-06-22T14:23:25;2.92;;;2.08;;
26612;SDS011;14248;57.652;11.908;2023-06-22T14:25:52;4.75;;;2.80;;
26612;SDS011;14248;57.652;11.908;2023-06-22T14:28:17;3.75;;;3.00;;
26612;SDS011;14248;57.652;11.908;2023-06-22T14:30:43;6.20;;;3.15;;
26612;SDS011;14248;57.652;11.908;2023-06-22T14:33:09;5.15;;;2.95;;
26612;SDS011;14248;57.652;11.908;2023-06-22T14:35:35;5.45;;;2.80;;
26612;SDS011;14248;57.652;11.908;2023-06-22T14:38:00;2.35;;;2.08;;
26612;SDS011;14248;57.652;11.908;2023-06-22T14:40:26;2.88;;;2.17;;